sensor_id;sensor_type;location;lat;lon;timestamp;P1;durP1;ratioP1;P2;durP2;ratioP2
23181;SDS011;11759;51.282;6.642;2023-05-18T00:01:09;450.88;;;145.07;;
23181;SDS011;11759;51.282;6.642;2023-05-18T00:03:37;398.35;;;107.55;;
23181;SDS011;11759;51.282;6.642;2023-05-18T00:06:04;380.05;;;103.25;;
23181;SDS011;11759;51.282;6.642;2023-05-18T00:08:32;407.25;;;110.00;;
23181;SDS011;11759;51.282;6.642;2023-05-18T00:11:00;378.15;;;99.22;;
23181;SDS011;11759;51.282;6.642;2023-05-18T00:13:27;449.70;;;139.93;;
23181;SDS011;11759;51.282;6.642;2023-05-18T00:15:54;396.65;;;99.95;;
23181;SDS011;11759;51.282;6.642;2023-05-18T00:18:21;438.40;;;120.97;;
23181;SDS011;11759;51.282;6.642;2023-05-18T00:20:50;372.15;;;100.25;;
23181;SDS011;11759;51.282;6.642;2023-05-18T00:23:16;576.72;;;190.35;;
23181;SDS011;11759;51.282;6.642;2023-05-18T00:25:43;452.75;;;133.07;;
23181;SDS011;11759;51.282;6.642;2023-05-18T00:28:10;372.27;;;95.57;;
23181;SDS011;11759;51.282;6.642;2023-05-18T00:30:37;434.83;;;117.65;;
23181;SDS011;11759;51.282;6.642;2023-05-18T00:33:04;449.55;;;133.45;;
23181;SDS011;11759;51.282;6.642;2023-05-18T00:35:31;340.65;;;96.90;;
23181;SDS011;11759;51.282;6.642;2023-05-18T00:37:58;342.75;;;94.78;;
23181;SDS011;11759;51.282;6.642;2023-05-18T00:40:24;475.08;;;152.98;;
23181;SDS011;11759;51.282;6.642;2023-05-18T00:42:53;492.73;;;154.02;;
23181;SDS011;11759;51.282;6.642;2023-05-18T00:45:20;410.20;;;140.80;;
23181;SDS011;11759;51.282;6.642;2023-05-18T00:47:47;350.70;;;95.15;;
23181;SDS011;11759;51.282;6.642;2023-05-18T00:50:13;529.30;;;196.55;;
23181;SDS011;11759;51.282;6.642;2023-05-18T00:52:40;538.85;;;192.77;;
23181;SDS011;11759;51.282;6.642;2023-05-18T00:55:07;419.38;;;149.07;;
23181;SDS011;11759;51.282;6.642;2023-05-18T00:57:34;344.58;;;96.25;;
23181;SDS011;11759;51.282;6.642;2023-05-18T01:00:02;424.75;;;142.77;;
23181;SDS011;11759;51.282;6.642;2023-05-18T01:02:30;477.13;;;159.02;;
23181;SDS011;11759;51.282;6.642;2023-05-18T01:04:57;361.15;;;111.43;;
23181;SDS011;11759;51.282;6.642;2023-05-18T01:07:26;319.05;;;97.55;;
23181;SDS011;11759;51.282;6.642;2023-05-18T01:09:53;571.92;;;212.55;;
23181;SDS011;11759;51.282;6.642;2023-05-18T01:12:23;398.25;;;133.68;;
23181;SDS011;11759;51.282;6.642;2023-05-18T01:14:57;285.92;;;87.88;;
23181;SDS011;11759;51.282;6.642;2023-05-18T01:17:34;320.42;;;105.03;;
23181;SDS011;11759;51.282;6.642;2023-05-18T01:20:11;370.95;;;154.07;;
23181;SDS011;11759;51.282;6.642;2023-05-18T01:26:23;305.75;;;86.05;;
23181;SDS011;11759;51.282;6.642;2023-05-18T01:29:04;293.65;;;87.38;;
23181;SDS011;11759;51.282;6.642;2023-05-18T01:31:32;268.00;;;90.20;;
23181;SDS011;11759;51.282;6.642;2023-05-18T01:34:01;469.38;;;170.35;;
23181;SDS011;11759;51.282;6.642;2023-05-18T01:36:27;282.17;;;86.50;;
23181;SDS011;11759;51.282;6.642;2023-05-18T01:38:54;501.95;;;202.10;;
23181;SDS011;11759;51.282;6.642;2023-05-18T01:41:27;279.40;;;86.70;;
23181;SDS011;11759;51.282;6.642;2023-05-18T01:49:15;394.23;;;136.88;;
23181;SDS011;11759;51.282;6.642;2023-05-18T01:51:46;270.75;;;80.07;;
23181;SDS011;11759;51.282;6.642;2023-05-18T01:54:16;531.40;;;205.93;;
23181;SDS011;11759;51.282;6.642;2023-05-18T01:56:44;442.73;;;155.07;;
23181;SDS011;11759;51.282;6.642;2023-05-18T01:59:13;278.48;;;81.38;;
23181;SDS011;11759;51.282;6.642;2023-05-18T02:01:40;468.75;;;162.93;;
23181;SDS011;11759;51.282;6.642;2023-05-18T02:04:07;277.42;;;85.68;;
23181;SDS011;11759;51.282;6.642;2023-05-18T02:06:35;308.17;;;104.68;;
23181;SDS011;11759;51.282;6.642;2023-05-18T02:09:03;224.55;;;80.55;;
23181;SDS011;11759;51.282;6.642;2023-05-18T02:11:32;205.07;;;76.15;;
23181;SDS011;11759;51.282;6.642;2023-05-18T02:13:58;204.20;;;75.13;;
23181;SDS011;11759;51.282;6.642;2023-05-18T02:16:26;217.15;;;78.18;;
23181;SDS011;11759;51.282;6.642;2023-05-18T02:18:52;207.52;;;78.53;;
23181;SDS011;11759;51.282;6.642;2023-05-18T02:21:19;187.27;;;73.00;;
23181;SDS011;11759;51.282;6.642;2023-05-18T02:23:47;324.40;;;123.60;;
23181;SDS011;11759;51.282;6.642;2023-05-18T02:26:14;181.70;;;71.68;;
23181;SDS011;11759;51.282;6.642;2023-05-18T02:28:41;417.30;;;159.43;;
23181;SDS011;11759;51.282;6.642;2023-05-18T02:31:08;174.73;;;69.55;;
23181;SDS011;11759;51.282;6.642;2023-05-18T02:33:37;240.00;;;91.57;;
23181;SDS011;11759;51.282;6.642;2023-05-18T02:36:10;185.10;;;69.53;;
23181;SDS011;11759;51.282;6.642;2023-05-18T02:38:41;247.77;;;96.85;;
23181;SDS011;11759;51.282;6.642;2023-05-18T02:41:09;234.15;;;85.30;;
23181;SDS011;11759;51.282;6.642;2023-05-18T02:43:36;207.80;;;75.03;;
23181;SDS011;11759;51.282;6.642;2023-05-18T02:46:03;275.73;;;98.63;;
23181;SDS011;11759;51.282;6.642;2023-05-18T02:48:31;228.73;;;77.28;;
23181;SDS011;11759;51.282;6.642;2023-05-18T02:50:58;428.00;;;155.48;;
23181;SDS011;11759;51.282;6.642;2023-05-18T02:53:25;216.48;;;77.28;;
23181;SDS011;11759;51.282;6.642;2023-05-18T02:55:57;545.35;;;227.25;;
23181;SDS011;11759;51.282;6.642;2023-05-18T02:58:29;227.75;;;77.65;;
23181;SDS011;11759;51.282;6.642;2023-05-18T03:01:05;429.38;;;158.20;;
23181;SDS011;11759;51.282;6.642;2023-05-18T03:03:38;220.68;;;76.78;;
23181;SDS011;11759;51.282;6.642;2023-05-18T03:06:09;275.77;;;99.40;;
23181;SDS011;11759;51.282;6.642;2023-05-18T03:08:35;211.77;;;76.38;;
23181;SDS011;11759;51.282;6.642;2023-05-18T03:11:02;386.40;;;147.23;;
23181;SDS011;11759;51.282;6.642;2023-05-18T03:13:29;206.95;;;75.45;;
23181;SDS011;11759;51.282;6.642;2023-05-18T03:15:57;367.13;;;140.07;;
23181;SDS011;11759;51.282;6.642;2023-05-18T03:18:24;207.45;;;75.13;;
23181;SDS011;11759;51.282;6.642;2023-05-18T03:20:52;230.63;;;84.70;;
23181;SDS011;11759;51.282;6.642;2023-05-18T03:23:19;228.23;;;83.53;;
23181;SDS011;11759;51.282;6.642;2023-05-18T03:25:47;228.82;;;83.13;;
23181;SDS011;11759;51.282;6.642;2023-05-18T03:28:22;196.77;;;76.22;;
23181;SDS011;11759;51.282;6.642;2023-05-18T03:30:49;275.98;;;96.97;;
23181;SDS011;11759;51.282;6.642;2023-05-18T03:33:16;454.42;;;172.13;;
23181;SDS011;11759;51.282;6.642;2023-05-18T03:35:43;202.93;;;73.10;;
23181;SDS011;11759;51.282;6.642;2023-05-18T03:38:13;193.85;;;83.20;;
23181;SDS011;11759;51.282;6.642;2023-05-18T03:40:44;97.30;;;54.67;;
23181;SDS011;11759;51.282;6.642;2023-05-18T03:43:11;369.38;;;152.98;;
23181;SDS011;11759;51.282;6.642;2023-05-18T03:45:39;161.57;;;69.95;;
23181;SDS011;11759;51.282;6.642;2023-05-18T03:48:06;207.30;;;82.82;;
23181;SDS011;11759;51.282;6.642;2023-05-18T03:50:34;180.93;;;71.40;;
23181;SDS011;11759;51.282;6.642;2023-05-18T03:53:01;375.75;;;145.82;;
23181;SDS011;11759;51.282;6.642;2023-05-18T03:55:28;225.98;;;85.22;;
23181;SDS011;11759;51.282;6.642;2023-05-18T03:57:55;197.00;;;74.63;;
23181;SDS011;11759;51.282;6.642;2023-05-18T04:00:24;246.38;;;93.93;;
23181;SDS011;11759;51.282;6.642;2023-05-18T04:02:50;287.35;;;110.38;;
23181;SDS011;11759;51.282;6.642;2023-05-18T04:05:21;195.15;;;75.70;;
23181;SDS011;11759;51.282;6.642;2023-05-18T04:07:48;321.77;;;126.47;;
23181;SDS011;11759;51.282;6.642;2023-05-18T04:10:15;276.77;;;127.22;;
23181;SDS011;11759;51.282;6.642;2023-05-18T04:12:44;217.18;;;76.95;;
23181;SDS011;11759;51.282;6.642;2023-05-18T04:15:11;333.55;;;140.25;;
23181;SDS011;11759;51.282;6.642;2023-05-18T04:17:40;228.90;;;82.03;;
23181;SDS011;11759;51.282;6.642;2023-05-18T04:20:11;399.52;;;165.25;;
23181;SDS011;11759;51.282;6.642;2023-05-18T04:22:40;220.23;;;79.03;;
23181;SDS011;11759;51.282;6.642;2023-05-18T04:25:14;328.65;;;140.32;;
23181;SDS011;11759;51.282;6.642;2023-05-18T04:27:42;224.77;;;76.93;;
23181;SDS011;11759;51.282;6.642;2023-05-18T04:30:11;349.58;;;140.82;;
23181;SDS011;11759;51.282;6.642;2023-05-18T04:32:40;234.30;;;76.70;;
23181;SDS011;11759;51.282;6.642;2023-05-18T04:35:09;446.02;;;185.43;;
23181;SDS011;11759;51.282;6.642;2023-05-18T04:37:37;232.48;;;77.95;;
23181;SDS011;11759;51.282;6.642;2023-05-18T04:40:08;322.25;;;132.40;;
23181;SDS011;11759;51.282;6.642;2023-05-18T04:42:39;232.48;;;78.45;;
23181;SDS011;11759;51.282;6.642;2023-05-18T04:45:17;349.83;;;144.57;;
23181;SDS011;11759;51.282;6.642;2023-05-18T04:47:45;240.93;;;81.88;;
23181;SDS011;11759;51.282;6.642;2023-05-18T04:50:16;391.55;;;164.65;;
23181;SDS011;11759;51.282;6.642;2023-05-18T04:52:44;220.63;;;75.75;;
23181;SDS011;11759;51.282;6.642;2023-05-18T04:55:16;349.55;;;150.00;;
23181;SDS011;11759;51.282;6.642;2023-05-18T04:57:49;227.50;;;77.72;;
23181;SDS011;11759;51.282;6.642;2023-05-18T05:00:16;348.48;;;145.18;;
23181;SDS011;11759;51.282;6.642;2023-05-18T05:02:43;209.68;;;79.97;;
23181;SDS011;11759;51.282;6.642;2023-05-18T05:05:10;382.10;;;168.00;;
23181;SDS011;11759;51.282;6.642;2023-05-18T05:07:37;248.43;;;89.57;;
23181;SDS011;11759;51.282;6.642;2023-05-18T05:10:04;275.77;;;106.75;;
23181;SDS011;11759;51.282;6.642;2023-05-18T05:12:31;281.55;;;101.68;;
23181;SDS011;11759;51.282;6.642;2023-05-18T05:14:58;239.55;;;85.40;;
23181;SDS011;11759;51.282;6.642;2023-05-18T05:17:25;303.60;;;109.00;;
23181;SDS011;11759;51.282;6.642;2023-05-18T05:19:52;258.83;;;86.90;;
23181;SDS011;11759;51.282;6.642;2023-05-18T05:22:18;305.73;;;146.00;;
23181;SDS011;11759;51.282;6.642;2023-05-18T05:24:45;211.80;;;80.70;;
23181;SDS011;11759;51.282;6.642;2023-05-18T05:27:12;249.07;;;94.63;;
23181;SDS011;11759;51.282;6.642;2023-05-18T05:29:40;218.77;;;81.60;;
23181;SDS011;11759;51.282;6.642;2023-05-18T05:32:08;228.43;;;94.18;;
23181;SDS011;11759;51.282;6.642;2023-05-18T05:34:35;332.05;;;142.35;;
23181;SDS011;11759;51.282;6.642;2023-05-18T05:37:03;234.50;;;103.32;;
23181;SDS011;11759;51.282;6.642;2023-05-18T05:39:30;266.83;;;102.28;;
23181;SDS011;11759;51.282;6.642;2023-05-18T05:41:58;255.63;;;111.47;;
23181;SDS011;11759;51.282;6.642;2023-05-18T05:44:25;246.77;;;98.43;;
23181;SDS011;11759;51.282;6.642;2023-05-18T05:46:52;292.63;;;123.25;;
23181;SDS011;11759;51.282;6.642;2023-05-18T05:49:19;262.05;;;106.85;;
23181;SDS011;11759;51.282;6.642;2023-05-18T05:51:46;218.57;;;96.28;;
23181;SDS011;11759;51.282;6.642;2023-05-18T05:54:14;277.58;;;118.10;;
23181;SDS011;11759;51.282;6.642;2023-05-18T05:56:43;244.02;;;103.35;;
23181;SDS011;11759;51.282;6.642;2023-05-18T05:59:10;241.65;;;106.40;;
23181;SDS011;11759;51.282;6.642;2023-05-18T06:01:37;219.43;;;89.28;;
23181;SDS011;11759;51.282;6.642;2023-05-18T06:04:04;284.98;;;123.60;;
23181;SDS011;11759;51.282;6.642;2023-05-18T06:06:36;249.35;;;98.28;;
23181;SDS011;11759;51.282;6.642;2023-05-18T06:09:05;283.58;;;116.40;;
23181;SDS011;11759;51.282;6.642;2023-05-18T06:11:32;411.83;;;165.77;;
23181;SDS011;11759;51.282;6.642;2023-05-18T06:13:58;237.32;;;104.63;;
23181;SDS011;11759;51.282;6.642;2023-05-18T06:16:25;500.48;;;215.70;;
23181;SDS011;11759;51.282;6.642;2023-05-18T06:18:52;236.60;;;98.28;;
23181;SDS011;11759;51.282;6.642;2023-05-18T06:21:19;323.63;;;130.40;;
23181;SDS011;11759;51.282;6.642;2023-05-18T06:23:46;240.55;;;103.53;;
23181;SDS011;11759;51.282;6.642;2023-05-18T06:26:39;265.83;;;106.90;;
23181;SDS011;11759;51.282;6.642;2023-05-18T06:29:15;271.02;;;108.70;;
23181;SDS011;11759;51.282;6.642;2023-05-18T06:32:01;255.45;;;106.80;;
23181;SDS011;11759;51.282;6.642;2023-05-18T06:34:34;302.48;;;126.25;;
23181;SDS011;11759;51.282;6.642;2023-05-18T06:37:00;264.35;;;106.38;;
23181;SDS011;11759;51.282;6.642;2023-05-18T06:39:27;401.40;;;167.40;;
23181;SDS011;11759;51.282;6.642;2023-05-18T06:41:54;265.10;;;107.25;;
23181;SDS011;11759;51.282;6.642;2023-05-18T06:44:24;295.35;;;119.40;;
23181;SDS011;11759;51.282;6.642;2023-05-18T06:47:13;261.55;;;107.32;;
23181;SDS011;11759;51.282;6.642;2023-05-18T06:49:40;270.67;;;118.72;;
23181;SDS011;11759;51.282;6.642;2023-05-18T06:52:07;231.35;;;110.43;;
23181;SDS011;11759;51.282;6.642;2023-05-18T06:54:37;273.98;;;122.43;;
23181;SDS011;11759;51.282;6.642;2023-05-18T06:57:04;245.60;;;107.88;;
23181;SDS011;11759;51.282;6.642;2023-05-18T06:59:31;313.38;;;136.77;;
23181;SDS011;11759;51.282;6.642;2023-05-18T07:01:59;237.68;;;109.85;;
23181;SDS011;11759;51.282;6.642;2023-05-18T07:04:28;257.17;;;130.07;;
23181;SDS011;11759;51.282;6.642;2023-05-18T07:06:54;224.65;;;112.93;;
23181;SDS011;11759;51.282;6.642;2023-05-18T07:09:22;313.38;;;148.07;;
23181;SDS011;11759;51.282;6.642;2023-05-18T07:11:49;243.82;;;109.22;;
23181;SDS011;11759;51.282;6.642;2023-05-18T07:14:16;293.77;;;135.45;;
23181;SDS011;11759;51.282;6.642;2023-05-18T07:16:42;279.40;;;118.53;;
23181;SDS011;11759;51.282;6.642;2023-05-18T07:19:12;258.45;;;115.55;;
23181;SDS011;11759;51.282;6.642;2023-05-18T07:21:39;282.60;;;128.82;;
23181;SDS011;11759;51.282;6.642;2023-05-18T07:24:06;253.15;;;102.00;;
23181;SDS011;11759;51.282;6.642;2023-05-18T07:26:33;409.17;;;170.60;;
23181;SDS011;11759;51.282;6.642;2023-05-18T07:29:00;255.88;;;98.30;;
23181;SDS011;11759;51.282;6.642;2023-05-18T07:31:26;322.27;;;125.32;;
23181;SDS011;11759;51.282;6.642;2023-05-18T07:33:53;254.32;;;101.25;;
23181;SDS011;11759;51.282;6.642;2023-05-18T07:36:20;268.88;;;110.82;;
23181;SDS011;11759;51.282;6.642;2023-05-18T07:38:47;242.10;;;100.72;;
23181;SDS011;11759;51.282;6.642;2023-05-18T07:41:20;308.02;;;133.70;;
23181;SDS011;11759;51.282;6.642;2023-05-18T07:43:48;255.18;;;109.63;;
23181;SDS011;11759;51.282;6.642;2023-05-18T07:46:16;247.93;;;113.70;;
23181;SDS011;11759;51.282;6.642;2023-05-18T07:48:43;235.75;;;106.97;;
23181;SDS011;11759;51.282;6.642;2023-05-18T07:51:10;224.00;;;107.07;;
23181;SDS011;11759;51.282;6.642;2023-05-18T07:53:37;350.33;;;159.98;;
23181;SDS011;11759;51.282;6.642;2023-05-18T07:56:06;217.93;;;104.93;;
23181;SDS011;11759;51.282;6.642;2023-05-18T07:58:34;258.15;;;124.53;;
23181;SDS011;11759;51.282;6.642;2023-05-18T08:01:01;211.10;;;111.80;;
23181;SDS011;11759;51.282;6.642;2023-05-18T08:03:28;287.27;;;140.57;;
23181;SDS011;11759;51.282;6.642;2023-05-18T08:05:55;494.42;;;253.30;;
23181;SDS011;11759;51.282;6.642;2023-05-18T08:08:22;247.85;;;124.30;;
23181;SDS011;11759;51.282;6.642;2023-05-18T08:10:49;262.52;;;124.28;;
23181;SDS011;11759;51.282;6.642;2023-05-18T08:13:17;247.57;;;129.93;;
23181;SDS011;11759;51.282;6.642;2023-05-18T08:15:43;265.98;;;127.53;;
23181;SDS011;11759;51.282;6.642;2023-05-18T08:18:21;245.25;;;120.00;;
23181;SDS011;11759;51.282;6.642;2023-05-18T08:20:48;289.35;;;145.40;;
23181;SDS011;11759;51.282;6.642;2023-05-18T08:23:14;264.83;;;129.95;;
23181;SDS011;11759;51.282;6.642;2023-05-18T08:25:41;248.23;;;140.73;;
23181;SDS011;11759;51.282;6.642;2023-05-18T08:28:08;243.35;;;129.70;;
23181;SDS011;11759;51.282;6.642;2023-05-18T08:30:34;255.57;;;133.20;;
23181;SDS011;11759;51.282;6.642;2023-05-18T08:33:01;289.95;;;145.93;;
23181;SDS011;11759;51.282;6.642;2023-05-18T08:35:28;272.73;;;140.82;;
23181;SDS011;11759;51.282;6.642;2023-05-18T08:37:55;491.45;;;254.45;;
23181;SDS011;11759;51.282;6.642;2023-05-18T08:40:23;265.30;;;141.77;;
23181;SDS011;11759;51.282;6.642;2023-05-18T08:43:11;332.17;;;167.57;;
23181;SDS011;11759;51.282;6.642;2023-05-18T08:48:21;263.02;;;139.02;;
23181;SDS011;11759;51.282;6.642;2023-05-18T08:50:51;332.13;;;172.93;;
23181;SDS011;11759;51.282;6.642;2023-05-18T08:53:21;273.52;;;142.63;;
23181;SDS011;11759;51.282;6.642;2023-05-18T08:55:52;503.40;;;264.88;;
23181;SDS011;11759;51.282;6.642;2023-05-18T08:58:20;293.48;;;153.10;;
23181;SDS011;11759;51.282;6.642;2023-05-18T09:00:49;407.10;;;222.38;;
23181;SDS011;11759;51.282;6.642;2023-05-18T09:03:19;264.93;;;157.40;;
23181;SDS011;11759;51.282;6.642;2023-05-18T09:05:47;428.58;;;231.45;;
23181;SDS011;11759;51.282;6.642;2023-05-18T09:08:14;280.27;;;143.95;;
23181;SDS011;11759;51.282;6.642;2023-05-18T09:10:40;378.13;;;193.30;;
23181;SDS011;11759;51.282;6.642;2023-05-18T09:13:07;258.50;;;137.02;;
23181;SDS011;11759;51.282;6.642;2023-05-18T09:15:35;255.65;;;138.25;;
23181;SDS011;11759;51.282;6.642;2023-05-18T09:18:01;279.40;;;144.68;;
23181;SDS011;11759;51.282;6.642;2023-05-18T09:20:29;251.25;;;136.30;;
23181;SDS011;11759;51.282;6.642;2023-05-18T09:22:57;282.17;;;155.15;;
23181;SDS011;11759;51.282;6.642;2023-05-18T09:25:24;257.23;;;146.73;;
23181;SDS011;11759;51.282;6.642;2023-05-18T09:27:52;321.05;;;169.00;;
23181;SDS011;11759;51.282;6.642;2023-05-18T09:30:20;310.10;;;165.00;;
23181;SDS011;11759;51.282;6.642;2023-05-18T09:32:47;268.52;;;150.82;;
23181;SDS011;11759;51.282;6.642;2023-05-18T09:35:15;502.08;;;305.95;;
23181;SDS011;11759;51.282;6.642;2023-05-18T09:37:41;288.13;;;170.25;;
23181;SDS011;11759;51.282;6.642;2023-05-18T09:40:08;558.80;;;347.20;;
23181;SDS011;11759;51.282;6.642;2023-05-18T09:42:39;387.48;;;232.05;;
23181;SDS011;11759;51.282;6.642;2023-05-18T09:45:14;560.17;;;316.15;;
23181;SDS011;11759;51.282;6.642;2023-05-18T09:47:52;497.60;;;226.18;;
23181;SDS011;11759;51.282;6.642;2023-05-18T09:50:19;569.90;;;295.48;;
23181;SDS011;11759;51.282;6.642;2023-05-18T09:52:46;452.85;;;214.73;;
23181;SDS011;11759;51.282;6.642;2023-05-18T09:55:15;532.55;;;265.45;;
23181;SDS011;11759;51.282;6.642;2023-05-18T09:57:43;524.53;;;256.60;;
23181;SDS011;11759;51.282;6.642;2023-05-18T10:00:11;502.75;;;250.48;;
23181;SDS011;11759;51.282;6.642;2023-05-18T10:02:43;470.83;;;221.43;;
23181;SDS011;11759;51.282;6.642;2023-05-18T10:05:17;498.90;;;268.23;;
23181;SDS011;11759;51.282;6.642;2023-05-18T10:07:48;434.02;;;199.77;;
23181;SDS011;11759;51.282;6.642;2023-05-18T10:10:17;513.83;;;279.08;;
23181;SDS011;11759;51.282;6.642;2023-05-18T10:12:49;435.38;;;207.60;;
23181;SDS011;11759;51.282;6.642;2023-05-18T10:15:19;516.10;;;247.75;;
23181;SDS011;11759;51.282;6.642;2023-05-18T10:17:47;441.40;;;197.98;;
23181;SDS011;11759;51.282;6.642;2023-05-18T10:20:17;509.23;;;255.63;;
23181;SDS011;11759;51.282;6.642;2023-05-18T10:22:45;471.92;;;225.82;;
23181;SDS011;11759;51.282;6.642;2023-05-18T10:25:17;495.35;;;259.58;;
23181;SDS011;11759;51.282;6.642;2023-05-18T10:27:45;472.98;;;237.90;;
23181;SDS011;11759;51.282;6.642;2023-05-18T10:30:13;485.75;;;276.60;;
23181;SDS011;11759;51.282;6.642;2023-05-18T10:32:40;461.15;;;282.05;;
23181;SDS011;11759;51.282;6.642;2023-05-18T10:35:08;511.13;;;308.35;;
23181;SDS011;11759;51.282;6.642;2023-05-18T10:37:37;506.95;;;258.27;;
23181;SDS011;11759;51.282;6.642;2023-05-18T10:40:05;486.67;;;260.45;;
23181;SDS011;11759;51.282;6.642;2023-05-18T10:42:36;486.58;;;249.55;;
23181;SDS011;11759;51.282;6.642;2023-05-18T10:45:03;466.00;;;245.13;;
23181;SDS011;11759;51.282;6.642;2023-05-18T10:47:32;513.28;;;251.75;;
23181;SDS011;11759;51.282;6.642;2023-05-18T10:50:01;498.65;;;248.18;;
23181;SDS011;11759;51.282;6.642;2023-05-18T10:52:29;430.92;;;200.30;;
23181;SDS011;11759;51.282;6.642;2023-05-18T10:54:57;497.77;;;235.15;;
23181;SDS011;11759;51.282;6.642;2023-05-18T10:57:33;449.25;;;214.02;;
23181;SDS011;11759;51.282;6.642;2023-05-18T11:00:03;607.60;;;321.38;;
23181;SDS011;11759;51.282;6.642;2023-05-18T11:02:32;442.53;;;224.50;;
23181;SDS011;11759;51.282;6.642;2023-05-18T11:05:03;474.27;;;241.75;;
23181;SDS011;11759;51.282;6.642;2023-05-18T11:07:34;419.00;;;208.23;;
23181;SDS011;11759;51.282;6.642;2023-05-18T11:10:01;445.02;;;251.35;;
23181;SDS011;11759;51.282;6.642;2023-05-18T11:12:30;397.73;;;246.90;;
23181;SDS011;11759;51.282;6.642;2023-05-18T11:14:58;647.28;;;431.35;;
23181;SDS011;11759;51.282;6.642;2023-05-18T11:17:29;485.67;;;293.40;;
23181;SDS011;11759;51.282;6.642;2023-05-18T11:22:50;480.87;;;370.17;;
23181;SDS011;11759;51.282;6.642;2023-05-18T11:28:09;659.78;;;437.23;;
23181;SDS011;11759;51.282;6.642;2023-05-18T11:33:08;643.00;;;301.80;;
23181;SDS011;11759;51.282;6.642;2023-05-18T11:41:27;633.47;;;316.63;;
23181;SDS011;11759;51.282;6.642;2023-05-18T11:44:37;650.85;;;331.13;;
23181;SDS011;11759;51.282;6.642;2023-05-18T11:49:36;609.70;;;253.10;;
23181;SDS011;11759;51.282;6.642;2023-05-18T11:57:40;623.28;;;295.10;;
23181;SDS011;11759;51.282;6.642;2023-05-18T12:00:06;712.03;;;423.35;;
23181;SDS011;11759;51.282;6.642;2023-05-18T12:02:38;628.40;;;360.23;;
23181;SDS011;11759;51.282;6.642;2023-05-18T12:05:09;711.50;;;429.08;;
23181;SDS011;11759;51.282;6.642;2023-05-18T12:07:36;649.03;;;410.88;;
23181;SDS011;11759;51.282;6.642;2023-05-18T12:10:06;710.00;;;483.55;;
23181;SDS011;11759;51.282;6.642;2023-05-18T12:12:37;651.70;;;445.00;;
23181;SDS011;11759;51.282;6.642;2023-05-18T12:15:05;715.95;;;533.28;;
23181;SDS011;11759;51.282;6.642;2023-05-18T12:17:39;725.30;;;528.60;;
23181;SDS011;11759;51.282;6.642;2023-05-18T12:20:08;706.80;;;493.40;;
23181;SDS011;11759;51.282;6.642;2023-05-18T12:22:38;803.38;;;554.83;;
23181;SDS011;11759;51.282;6.642;2023-05-18T12:25:06;702.45;;;431.73;;
23181;SDS011;11759;51.282;6.642;2023-05-18T12:27:39;679.85;;;370.63;;
23181;SDS011;11759;51.282;6.642;2023-05-18T12:32:37;640.92;;;282.58;;
23181;SDS011;11759;51.282;6.642;2023-05-18T12:35:04;618.78;;;277.20;;
23181;SDS011;11759;51.282;6.642;2023-05-18T12:37:32;648.28;;;301.38;;
23181;SDS011;11759;51.282;6.642;2023-05-18T12:40:13;666.00;;;319.52;;
23181;SDS011;11759;51.282;6.642;2023-05-18T12:45:30;609.97;;;283.63;;
23181;SDS011;11759;51.282;6.642;2023-05-18T12:48:11;603.08;;;283.90;;
23181;SDS011;11759;51.282;6.642;2023-05-18T12:50:44;791.05;;;425.23;;
23181;SDS011;11759;51.282;6.642;2023-05-18T12:53:12;616.28;;;300.60;;
23181;SDS011;11759;51.282;6.642;2023-05-18T12:55:38;748.85;;;414.48;;
23181;SDS011;11759;51.282;6.642;2023-05-18T12:58:06;629.97;;;359.85;;
23181;SDS011;11759;51.282;6.642;2023-05-18T13:00:44;663.55;;;347.65;;
23181;SDS011;11759;51.282;6.642;2023-05-18T13:03:12;619.47;;;309.58;;
23181;SDS011;11759;51.282;6.642;2023-05-18T13:05:42;782.20;;;433.02;;
23181;SDS011;11759;51.282;6.642;2023-05-18T13:08:15;618.40;;;310.38;;
23181;SDS011;11759;51.282;6.642;2023-05-18T13:10:47;639.88;;;317.30;;
23181;SDS011;11759;51.282;6.642;2023-05-18T13:13:30;640.85;;;328.38;;
23181;SDS011;11759;51.282;6.642;2023-05-18T13:15:58;619.55;;;315.45;;
23181;SDS011;11759;51.282;6.642;2023-05-18T13:18:25;664.55;;;345.30;;
23181;SDS011;11759;51.282;6.642;2023-05-18T13:20:56;624.95;;;316.05;;
23181;SDS011;11759;51.282;6.642;2023-05-18T13:23:25;639.47;;;352.27;;
23181;SDS011;11759;51.282;6.642;2023-05-18T13:25:53;639.90;;;366.20;;
23181;SDS011;11759;51.282;6.642;2023-05-18T13:28:23;640.05;;;354.80;;
23181;SDS011;11759;51.282;6.642;2023-05-18T13:30:50;644.10;;;359.02;;
23181;SDS011;11759;51.282;6.642;2023-05-18T13:33:16;638.40;;;361.63;;
23181;SDS011;11759;51.282;6.642;2023-05-18T13:35:44;656.92;;;360.10;;
23181;SDS011;11759;51.282;6.642;2023-05-18T13:38:12;635.55;;;344.83;;
23181;SDS011;11759;51.282;6.642;2023-05-18T13:40:39;671.95;;;375.33;;
23181;SDS011;11759;51.282;6.642;2023-05-18T13:43:06;624.85;;;325.70;;
23181;SDS011;11759;51.282;6.642;2023-05-18T13:45:37;725.67;;;399.35;;
23181;SDS011;11759;51.282;6.642;2023-05-18T13:48:04;622.85;;;329.05;;
23181;SDS011;11759;51.282;6.642;2023-05-18T13:50:35;821.42;;;484.80;;
23181;SDS011;11759;51.282;6.642;2023-05-18T13:53:03;629.03;;;341.58;;
23181;SDS011;11759;51.282;6.642;2023-05-18T13:55:29;674.95;;;358.15;;
23181;SDS011;11759;51.282;6.642;2023-05-18T14:00:27;630.17;;;299.73;;
23181;SDS011;11759;51.282;6.642;2023-05-18T14:02:55;617.85;;;291.23;;
23181;SDS011;11759;51.282;6.642;2023-05-18T14:05:22;623.85;;;318.48;;
23181;SDS011;11759;51.282;6.642;2023-05-18T14:07:49;649.45;;;356.52;;
23181;SDS011;11759;51.282;6.642;2023-05-18T14:10:19;838.15;;;497.45;;
23181;SDS011;11759;51.282;6.642;2023-05-18T14:12:46;631.55;;;340.60;;
23181;SDS011;11759;51.282;6.642;2023-05-18T14:15:12;753.03;;;445.05;;
23181;SDS011;11759;51.282;6.642;2023-05-18T14:17:40;631.00;;;347.35;;
23181;SDS011;11759;51.282;6.642;2023-05-18T14:20:08;705.30;;;393.85;;
23181;SDS011;11759;51.282;6.642;2023-05-18T14:22:35;680.92;;;376.60;;
23181;SDS011;11759;51.282;6.642;2023-05-18T14:25:02;621.83;;;326.70;;
23181;SDS011;11759;51.282;6.642;2023-05-18T14:27:29;655.90;;;345.83;;
23181;SDS011;11759;51.282;6.642;2023-05-18T14:29:56;621.38;;;312.98;;
23181;SDS011;11759;51.282;6.642;2023-05-18T14:32:23;626.28;;;311.73;;
23181;SDS011;11759;51.282;6.642;2023-05-18T14:34:50;626.55;;;316.23;;
23181;SDS011;11759;51.282;6.642;2023-05-18T14:37:19;620.63;;;301.35;;
23181;SDS011;11759;51.282;6.642;2023-05-18T14:39:46;619.25;;;299.85;;
23181;SDS011;11759;51.282;6.642;2023-05-18T14:42:13;710.33;;;370.67;;
23181;SDS011;11759;51.282;6.642;2023-05-18T14:44:40;618.35;;;295.90;;
23181;SDS011;11759;51.282;6.642;2023-05-18T14:47:06;654.10;;;317.83;;
23181;SDS011;11759;51.282;6.642;2023-05-18T14:49:33;621.63;;;295.00;;